sensor_id;sensor_type;location;lat;lon;timestamp;P1;durP1;ratioP1;P2;durP2;ratioP2
56201;SDS011;42117;50.360;3.508;2023-05-24T00:00:24;12.80;;;3.75;;
56201;SDS011;42117;50.360;3.508;2023-05-24T00:02:50;9.18;;;3.67;;
56201;SDS011;42117;50.360;3.508;2023-05-24T00:05:16;11.38;;;3.42;;
56201;SDS011;42117;50.360;3.508;2023-05-24T00:07:42;9.98;;;3.33;;
56201;SDS011;42117;50.360;3.508;2023-05-24T00:10:09;12.63;;;3.30;;
56201;SDS011;42117;50.360;3.508;2023-05-24T00:12:35;10.80;;;2.95;;
56201;SDS011;42117;50.360;3.508;2023-05-24T00:15:01;12.45;;;3.55;;
56201;SDS011;42117;50.360;3.508;2023-05-24T00:17:27;10.32;;;3.08;;
56201;SDS011;42117;50.360;3.508;2023-05-24T00:19:54;9.95;;;3.15;;
56201;SDS011;42117;50.360;3.508;2023-05-24T00:22:20;11.50;;;3.42;;
56201;SDS011;42117;50.360;3.508;2023-05-24T00:24:46;10.27;;;3.55;;
56201;SDS011;42117;50.360;3.508;2023-05-24T00:27:13;7.45;;;3.28;;
56201;SDS011;42117;50.360;3.508;2023-05-24T00:29:39;12.80;;;4.00;;
56201;SDS011;42117;50.360;3.508;2023-05-24T00:32:05;11.30;;;3.90;;
56201;SDS011;42117;50.360;3.508;2023-05-24T00:34:31;11.85;;;3.65;;
56201;SDS011;42117;50.360;3.508;2023-05-24T00:36:57;8.60;;;3.53;;
56201;SDS011;42117;50.360;3.508;2023-05-24T00:39:24;16.87;;;4.00;;
56201;SDS011;42117;50.360;3.508;2023-05-24T00:41:50;6.45;;;3.40;;
56201;SDS011;42117;50.360;3.508;2023-05-24T00:44:16;8.65;;;3.30;;
56201;SDS011;42117;50.360;3.508;2023-05-24T00:46:42;11.95;;;3.67;;
56201;SDS011;42117;50.360;3.508;2023-05-24T00:49:08;18.55;;;4.00;;
56201;SDS011;42117;50.360;3.508;2023-05-24T00:51:35;10.88;;;3.50;;
56201;SDS011;42117;50.360;3.508;2023-05-24T00:54:02;10.13;;;3.50;;
56201;SDS011;42117;50.360;3.508;2023-05-24T00:56:28;10.98;;;3.38;;
56201;SDS011;42117;50.360;3.508;2023-05-24T00:58:55;10.85;;;4.10;;
56201;SDS011;42117;50.360;3.508;2023-05-24T01:01:21;9.18;;;3.67;;
56201;SDS011;42117;50.360;3.508;2023-05-24T01:03:54;10.05;;;3.58;;
56201;SDS011;42117;50.360;3.508;2023-05-24T01:06:21;6.03;;;3.30;;
56201;SDS011;42117;50.360;3.508;2023-05-24T01:14:28;14.32;;;3.45;;
56201;SDS011;42117;50.360;3.508;2023-05-24T01:27:21;11.23;;;3.30;;
56201;SDS011;42117;50.360;3.508;2023-05-24T01:29:47;13.18;;;3.58;;
56201;SDS011;42117;50.360;3.508;2023-05-24T01:32:17;13.80;;;3.67;;
56201;SDS011;42117;50.360;3.508;2023-05-24T01:34:44;15.88;;;4.03;;
56201;SDS011;42117;50.360;3.508;2023-05-24T01:37:10;10.50;;;3.53;;
56201;SDS011;42117;50.360;3.508;2023-05-24T01:39:36;11.13;;;3.88;;
56201;SDS011;42117;50.360;3.508;2023-05-24T01:49:37;5.97;;;3.80;;
56201;SDS011;42117;50.360;3.508;2023-05-24T01:52:07;8.65;;;4.13;;
56201;SDS011;42117;50.360;3.508;2023-05-24T01:54:36;11.65;;;3.53;;
56201;SDS011;42117;50.360;3.508;2023-05-24T01:57:04;17.10;;;4.20;;
56201;SDS011;42117;50.360;3.508;2023-05-24T01:59:31;10.35;;;3.35;;
56201;SDS011;42117;50.360;3.508;2023-05-24T02:01:58;7.35;;;3.60;;
56201;SDS011;42117;50.360;3.508;2023-05-24T02:04:25;7.97;;;3.53;;
56201;SDS011;42117;50.360;3.508;2023-05-24T02:06:51;7.90;;;2.93;;
56201;SDS011;42117;50.360;3.508;2023-05-24T02:09:17;7.30;;;3.40;;
56201;SDS011;42117;50.360;3.508;2023-05-24T02:11:43;13.13;;;3.40;;
56201;SDS011;42117;50.360;3.508;2023-05-24T02:14:09;9.05;;;3.88;;
56201;SDS011;42117;50.360;3.508;2023-05-24T02:16:35;10.85;;;4.18;;
56201;SDS011;42117;50.360;3.508;2023-05-24T02:19:09;14.75;;;4.05;;
56201;SDS011;42117;50.360;3.508;2023-05-24T02:21:35;14.52;;;3.78;;
56201;SDS011;42117;50.360;3.508;2023-05-24T02:24:01;10.63;;;4.13;;
56201;SDS011;42117;50.360;3.508;2023-05-24T02:26:27;12.63;;;4.10;;
56201;SDS011;42117;50.360;3.508;2023-05-24T02:28:53;13.02;;;4.20;;
56201;SDS011;42117;50.360;3.508;2023-05-24T02:31:19;11.45;;;4.10;;
56201;SDS011;42117;50.360;3.508;2023-05-24T02:33:45;15.50;;;4.22;;
56201;SDS011;42117;50.360;3.508;2023-05-24T02:36:11;13.10;;;4.20;;
56201;SDS011;42117;50.360;3.508;2023-05-24T02:38:37;12.48;;;3.90;;
56201;SDS011;42117;50.360;3.508;2023-05-24T02:41:04;8.68;;;3.90;;
56201;SDS011;42117;50.360;3.508;2023-05-24T02:43:30;13.23;;;4.30;;
56201;SDS011;42117;50.360;3.508;2023-05-24T02:45:56;11.45;;;4.35;;
56201;SDS011;42117;50.360;3.508;2023-05-24T02:48:22;14.07;;;4.50;;
56201;SDS011;42117;50.360;3.508;2023-05-24T02:50:48;15.80;;;4.15;;
56201;SDS011;42117;50.360;3.508;2023-05-24T02:53:14;7.78;;;4.20;;
56201;SDS011;42117;50.360;3.508;2023-05-24T02:55:40;10.15;;;4.15;;
56201;SDS011;42117;50.360;3.508;2023-05-24T02:58:07;16.67;;;4.30;;
56201;SDS011;42117;50.360;3.508;2023-05-24T03:00:33;10.33;;;4.37;;
56201;SDS011;42117;50.360;3.508;2023-05-24T03:03:00;12.45;;;4.20;;
56201;SDS011;42117;50.360;3.508;2023-05-24T03:05:27;12.95;;;4.72;;
56201;SDS011;42117;50.360;3.508;2023-05-24T03:07:53;10.15;;;4.00;;
56201;SDS011;42117;50.360;3.508;2023-05-24T03:10:20;9.40;;;3.72;;
56201;SDS011;42117;50.360;3.508;2023-05-24T03:12:46;10.02;;;4.00;;
56201;SDS011;42117;50.360;3.508;2023-05-24T03:15:12;12.07;;;4.18;;
56201;SDS011;42117;50.360;3.508;2023-05-24T03:17:38;11.05;;;4.55;;
56201;SDS011;42117;50.360;3.508;2023-05-24T03:20:04;11.02;;;4.93;;
56201;SDS011;42117;50.360;3.508;2023-05-24T03:22:31;9.02;;;4.47;;
56201;SDS011;42117;50.360;3.508;2023-05-24T03:24:57;9.18;;;4.10;;
56201;SDS011;42117;50.360;3.508;2023-05-24T03:27:23;13.35;;;4.97;;
56201;SDS011;42117;50.360;3.508;2023-05-24T03:29:49;16.17;;;4.93;;
56201;SDS011;42117;50.360;3.508;2023-05-24T03:32:15;8.07;;;4.37;;
56201;SDS011;42117;50.360;3.508;2023-05-24T03:34:41;15.02;;;4.13;;
56201;SDS011;42117;50.360;3.508;2023-05-24T03:37:07;10.10;;;4.43;;
56201;SDS011;42117;50.360;3.508;2023-05-24T03:39:33;12.77;;;4.78;;
56201;SDS011;42117;50.360;3.508;2023-05-24T03:41:59;15.45;;;4.93;;
56201;SDS011;42117;50.360;3.508;2023-05-24T03:44:25;15.00;;;4.70;;
56201;SDS011;42117;50.360;3.508;2023-05-24T03:46:51;10.75;;;4.40;;
56201;SDS011;42117;50.360;3.508;2023-05-24T03:49:17;18.20;;;5.40;;
56201;SDS011;42117;50.360;3.508;2023-05-24T03:51:43;11.40;;;4.47;;
56201;SDS011;42117;50.360;3.508;2023-05-24T03:54:09;17.75;;;4.47;;
56201;SDS011;42117;50.360;3.508;2023-05-24T03:56:35;18.13;;;5.03;;
56201;SDS011;42117;50.360;3.508;2023-05-24T03:59:01;17.00;;;5.20;;
56201;SDS011;42117;50.360;3.508;2023-05-24T04:01:28;13.18;;;4.45;;
56201;SDS011;42117;50.360;3.508;2023-05-24T04:03:55;8.18;;;4.20;;
56201;SDS011;42117;50.360;3.508;2023-05-24T04:06:21;15.02;;;4.63;;
56201;SDS011;42117;50.360;3.508;2023-05-24T04:08:53;16.58;;;4.78;;
56201;SDS011;42117;50.360;3.508;2023-05-24T04:11:20;12.05;;;4.60;;
56201;SDS011;42117;50.360;3.508;2023-05-24T04:13:46;14.38;;;4.95;;
56201;SDS011;42117;50.360;3.508;2023-05-24T04:16:13;13.48;;;4.78;;
56201;SDS011;42117;50.360;3.508;2023-05-24T04:18:39;14.65;;;5.05;;
56201;SDS011;42117;50.360;3.508;2023-05-24T04:21:05;15.18;;;4.80;;
56201;SDS011;42117;50.360;3.508;2023-05-24T04:23:31;11.95;;;4.57;;
56201;SDS011;42117;50.360;3.508;2023-05-24T04:25:56;13.77;;;4.75;;
56201;SDS011;42117;50.360;3.508;2023-05-24T04:28:22;12.40;;;4.32;;
56201;SDS011;42117;50.360;3.508;2023-05-24T04:30:50;11.25;;;4.55;;
56201;SDS011;42117;50.360;3.508;2023-05-24T04:33:17;9.65;;;5.00;;
56201;SDS011;42117;50.360;3.508;2023-05-24T04:35:43;10.15;;;4.32;;
56201;SDS011;42117;50.360;3.508;2023-05-24T04:38:11;11.13;;;4.30;;
56201;SDS011;42117;50.360;3.508;2023-05-24T04:40:38;11.73;;;4.60;;
56201;SDS011;42117;50.360;3.508;2023-05-24T04:43:04;12.80;;;4.85;;
56201;SDS011;42117;50.360;3.508;2023-05-24T04:45:31;20.92;;;4.75;;
56201;SDS011;42117;50.360;3.508;2023-05-24T04:47:57;18.77;;;5.70;;
56201;SDS011;42117;50.360;3.508;2023-05-24T04:50:23;18.17;;;4.97;;
56201;SDS011;42117;50.360;3.508;2023-05-24T04:52:50;16.17;;;5.15;;
56201;SDS011;42117;50.360;3.508;2023-05-24T04:55:16;14.88;;;5.45;;
56201;SDS011;42117;50.360;3.508;2023-05-24T04:57:42;16.13;;;5.53;;
56201;SDS011;42117;50.360;3.508;2023-05-24T05:00:08;12.50;;;5.05;;
56201;SDS011;42117;50.360;3.508;2023-05-24T05:02:34;17.80;;;5.70;;
56201;SDS011;42117;50.360;3.508;2023-05-24T05:05:00;23.23;;;5.72;;
56201;SDS011;42117;50.360;3.508;2023-05-24T05:07:26;19.25;;;5.60;;
56201;SDS011;42117;50.360;3.508;2023-05-24T05:09:53;16.88;;;5.70;;
56201;SDS011;42117;50.360;3.508;2023-05-24T05:12:19;13.30;;;5.03;;
56201;SDS011;42117;50.360;3.508;2023-05-24T05:14:45;15.32;;;5.65;;
56201;SDS011;42117;50.360;3.508;2023-05-24T05:17:11;11.68;;;4.95;;
56201;SDS011;42117;50.360;3.508;2023-05-24T05:19:37;16.38;;;5.70;;
56201;SDS011;42117;50.360;3.508;2023-05-24T05:22:03;14.73;;;5.22;;
56201;SDS011;42117;50.360;3.508;2023-05-24T05:24:29;13.77;;;4.75;;
56201;SDS011;42117;50.360;3.508;2023-05-24T05:26:55;15.10;;;5.32;;
56201;SDS011;42117;50.360;3.508;2023-05-24T05:29:21;14.15;;;5.07;;
56201;SDS011;42117;50.360;3.508;2023-05-24T05:31:47;13.53;;;4.73;;
56201;SDS011;42117;50.360;3.508;2023-05-24T05:34:13;15.60;;;4.93;;
56201;SDS011;42117;50.360;3.508;2023-05-24T05:36:39;15.32;;;5.28;;
56201;SDS011;42117;50.360;3.508;2023-05-24T05:39:06;21.88;;;6.28;;
56201;SDS011;42117;50.360;3.508;2023-05-24T05:41:37;9.68;;;5.13;;
56201;SDS011;42117;50.360;3.508;2023-05-24T05:44:03;17.55;;;5.57;;
56201;SDS011;42117;50.360;3.508;2023-05-24T05:46:29;18.08;;;5.43;;
56201;SDS011;42117;50.360;3.508;2023-05-24T05:48:55;13.85;;;4.90;;
56201;SDS011;42117;50.360;3.508;2023-05-24T05:51:21;16.50;;;4.90;;
56201;SDS011;42117;50.360;3.508;2023-05-24T05:53:47;19.67;;;5.43;;
56201;SDS011;42117;50.360;3.508;2023-05-24T05:56:13;13.30;;;4.43;;
56201;SDS011;42117;50.360;3.508;2023-05-24T05:58:39;12.38;;;4.88;;
56201;SDS011;42117;50.360;3.508;2023-05-24T06:01:06;16.40;;;4.50;;
56201;SDS011;42117;50.360;3.508;2023-05-24T06:03:32;21.77;;;4.50;;
56201;SDS011;42117;50.360;3.508;2023-05-24T06:05:58;15.30;;;4.53;;
56201;SDS011;42117;50.360;3.508;2023-05-24T06:08:24;14.57;;;3.78;;
56201;SDS011;42117;50.360;3.508;2023-05-24T06:10:51;17.53;;;4.30;;
56201;SDS011;42117;50.360;3.508;2023-05-24T06:13:20;18.83;;;4.70;;
56201;SDS011;42117;50.360;3.508;2023-05-24T06:15:46;16.83;;;4.53;;
56201;SDS011;42117;50.360;3.508;2023-05-24T06:18:12;18.80;;;4.85;;
56201;SDS011;42117;50.360;3.508;2023-05-24T06:20:39;10.50;;;4.55;;
56201;SDS011;42117;50.360;3.508;2023-05-24T06:23:05;14.15;;;4.28;;
56201;SDS011;42117;50.360;3.508;2023-05-24T06:25:31;14.85;;;5.10;;
56201;SDS011;42117;50.360;3.508;2023-05-24T06:27:58;17.20;;;4.78;;
56201;SDS011;42117;50.360;3.508;2023-05-24T06:30:24;13.85;;;4.85;;
56201;SDS011;42117;50.360;3.508;2023-05-24T06:32:50;15.57;;;5.32;;
56201;SDS011;42117;50.360;3.508;2023-05-24T06:35:16;16.92;;;5.22;;
56201;SDS011;42117;50.360;3.508;2023-05-24T06:37:42;15.82;;;4.72;;
56201;SDS011;42117;50.360;3.508;2023-05-24T06:40:08;21.33;;;4.70;;
56201;SDS011;42117;50.360;3.508;2023-05-24T06:42:35;16.13;;;4.68;;
56201;SDS011;42117;50.360;3.508;2023-05-24T06:45:01;15.83;;;4.20;;
56201;SDS011;42117;50.360;3.508;2023-05-24T06:47:27;15.07;;;4.40;;
56201;SDS011;42117;50.360;3.508;2023-05-24T06:49:53;19.55;;;5.10;;
56201;SDS011;42117;50.360;3.508;2023-05-24T06:52:19;22.52;;;4.82;;
56201;SDS011;42117;50.360;3.508;2023-05-24T06:54:45;19.10;;;4.90;;
56201;SDS011;42117;50.360;3.508;2023-05-24T06:57:11;15.35;;;3.83;;
56201;SDS011;42117;50.360;3.508;2023-05-24T06:59:37;16.90;;;4.50;;
56201;SDS011;42117;50.360;3.508;2023-05-24T07:02:03;13.15;;;3.83;;
56201;SDS011;42117;50.360;3.508;2023-05-24T07:04:29;13.20;;;3.58;;
56201;SDS011;42117;50.360;3.508;2023-05-24T07:06:56;16.15;;;3.67;;
56201;SDS011;42117;50.360;3.508;2023-05-24T07:09:22;14.48;;;4.43;;
56201;SDS011;42117;50.360;3.508;2023-05-24T07:11:48;20.20;;;4.90;;
56201;SDS011;42117;50.360;3.508;2023-05-24T07:14:14;20.92;;;4.55;;
56201;SDS011;42117;50.360;3.508;2023-05-24T07:16:40;19.92;;;4.15;;
56201;SDS011;42117;50.360;3.508;2023-05-24T07:19:06;16.33;;;4.25;;
56201;SDS011;42117;50.360;3.508;2023-05-24T07:21:33;17.05;;;4.53;;
56201;SDS011;42117;50.360;3.508;2023-05-24T07:24:00;16.17;;;4.35;;
56201;SDS011;42117;50.360;3.508;2023-05-24T07:26:26;15.38;;;4.10;;
56201;SDS011;42117;50.360;3.508;2023-05-24T07:28:52;16.20;;;4.27;;
56201;SDS011;42117;50.360;3.508;2023-05-24T07:31:18;14.05;;;3.58;;
56201;SDS011;42117;50.360;3.508;2023-05-24T07:33:44;10.82;;;4.13;;
56201;SDS011;42117;50.360;3.508;2023-05-24T07:36:10;12.70;;;3.22;;
56201;SDS011;42117;50.360;3.508;2023-05-24T07:38:36;15.93;;;3.53;;
56201;SDS011;42117;50.360;3.508;2023-05-24T07:41:03;10.32;;;2.60;;
56201;SDS011;42117;50.360;3.508;2023-05-24T07:43:29;9.50;;;2.53;;
56201;SDS011;42117;50.360;3.508;2023-05-24T07:45:55;14.10;;;3.42;;
56201;SDS011;42117;50.360;3.508;2023-05-24T07:48:21;8.40;;;2.97;;
56201;SDS011;42117;50.360;3.508;2023-05-24T07:50:48;13.47;;;3.30;;
56201;SDS011;42117;50.360;3.508;2023-05-24T07:53:14;7.50;;;2.72;;
56201;SDS011;42117;50.360;3.508;2023-05-24T07:55:40;10.20;;;2.63;;
56201;SDS011;42117;50.360;3.508;2023-05-24T07:58:08;17.45;;;3.55;;
56201;SDS011;42117;50.360;3.508;2023-05-24T08:00:34;10.75;;;2.83;;
56201;SDS011;42117;50.360;3.508;2023-05-24T08:03:00;17.23;;;3.28;;
56201;SDS011;42117;50.360;3.508;2023-05-24T08:05:26;9.95;;;2.85;;
56201;SDS011;42117;50.360;3.508;2023-05-24T08:07:52;11.52;;;3.17;;
56201;SDS011;42117;50.360;3.508;2023-05-24T08:10:18;7.90;;;2.97;;
56201;SDS011;42117;50.360;3.508;2023-05-24T08:12:45;9.00;;;2.90;;
56201;SDS011;42117;50.360;3.508;2023-05-24T08:15:14;12.17;;;2.83;;
56201;SDS011;42117;50.360;3.508;2023-05-24T08:17:40;7.07;;;2.90;;
56201;SDS011;42117;50.360;3.508;2023-05-24T08:20:06;14.93;;;3.70;;
56201;SDS011;42117;50.360;3.508;2023-05-24T08:22:33;8.20;;;2.80;;
56201;SDS011;42117;50.360;3.508;2023-05-24T08:25:00;16.70;;;2.90;;
56201;SDS011;42117;50.360;3.508;2023-05-24T08:27:26;13.35;;;3.00;;
56201;SDS011;42117;50.360;3.508;2023-05-24T08:29:55;10.50;;;2.60;;
56201;SDS011;42117;50.360;3.508;2023-05-24T08:32:21;7.40;;;2.73;;
56201;SDS011;42117;50.360;3.508;2023-05-24T08:34:47;13.90;;;3.00;;
56201;SDS011;42117;50.360;3.508;2023-05-24T08:37:13;12.40;;;2.78;;
56201;SDS011;42117;50.360;3.508;2023-05-24T08:39:43;11.73;;;2.90;;
56201;SDS011;42117;50.360;3.508;2023-05-24T08:42:09;15.27;;;3.63;;
56201;SDS011;42117;50.360;3.508;2023-05-24T08:45:17;8.00;;;3.30;;
56201;SDS011;42117;50.360;3.508;2023-05-24T08:47:25;10.10;;;3.10;;
56201;SDS011;42117;50.360;3.508;2023-05-24T08:49:51;10.82;;;3.40;;
56201;SDS011;42117;50.360;3.508;2023-05-24T08:52:18;9.95;;;3.50;;
56201;SDS011;42117;50.360;3.508;2023-05-24T08:54:45;8.25;;;3.15;;
56201;SDS011;42117;50.360;3.508;2023-05-24T08:57:11;14.13;;;3.65;;
56201;SDS011;42117;50.360;3.508;2023-05-24T08:59:39;13.40;;;3.67;;
56201;SDS011;42117;50.360;3.508;2023-05-24T09:02:05;9.73;;;3.27;;
56201;SDS011;42117;50.360;3.508;2023-05-24T09:04:31;11.20;;;3.20;;
56201;SDS011;42117;50.360;3.508;2023-05-24T09:06:58;12.80;;;3.50;;
56201;SDS011;42117;50.360;3.508;2023-05-24T09:09:26;8.90;;;3.30;;
56201;SDS011;42117;50.360;3.508;2023-05-24T09:11:53;4.63;;;2.63;;
56201;SDS011;42117;50.360;3.508;2023-05-24T09:14:21;10.18;;;3.67;;
56201;SDS011;42117;50.360;3.508;2023-05-24T09:16:47;12.43;;;3.08;;
56201;SDS011;42117;50.360;3.508;2023-05-24T09:19:13;6.70;;;3.05;;
56201;SDS011;42117;50.360;3.508;2023-05-24T09:21:39;10.20;;;3.22;;
56201;SDS011;42117;50.360;3.508;2023-05-24T09:24:09;10.05;;;3.35;;
56201;SDS011;42117;50.360;3.508;2023-05-24T09:26:35;19.27;;;3.70;;
56201;SDS011;42117;50.360;3.508;2023-05-24T09:29:05;12.07;;;3.55;;
56201;SDS011;42117;50.360;3.508;2023-05-24T09:31:35;12.68;;;3.70;;
56201;SDS011;42117;50.360;3.508;2023-05-24T09:34:01;9.57;;;3.63;;
56201;SDS011;42117;50.360;3.508;2023-05-24T09:36:29;12.60;;;3.47;;
56201;SDS011;42117;50.360;3.508;2023-05-24T09:39:07;10.67;;;3.37;;
56201;SDS011;42117;50.360;3.508;2023-05-24T09:41:37;8.95;;;3.00;;
56201;SDS011;42117;50.360;3.508;2023-05-24T09:44:03;7.63;;;2.70;;
56201;SDS011;42117;50.360;3.508;2023-05-24T09:46:36;7.53;;;3.30;;
56201;SDS011;42117;50.360;3.508;2023-05-24T09:49:02;11.85;;;3.80;;
56201;SDS011;42117;50.360;3.508;2023-05-24T09:51:30;8.00;;;3.07;;
56201;SDS011;42117;50.360;3.508;2023-05-24T09:53:57;6.53;;;3.10;;
56201;SDS011;42117;50.360;3.508;2023-05-24T09:56:25;5.65;;;3.00;;
56201;SDS011;42117;50.360;3.508;2023-05-24T09:58:51;10.10;;;2.60;;
56201;SDS011;42117;50.360;3.508;2023-05-24T10:01:20;7.78;;;2.60;;
56201;SDS011;42117;50.360;3.508;2023-05-24T10:03:53;10.18;;;2.97;;
56201;SDS011;42117;50.360;3.508;2023-05-24T10:06:20;8.75;;;2.85;;
56201;SDS011;42117;50.360;3.508;2023-05-24T10:08:46;10.30;;;2.97;;
56201;SDS011;42117;50.360;3.508;2023-05-24T10:11:13;8.00;;;2.50;;
56201;SDS011;42117;50.360;3.508;2023-05-24T10:13:39;7.13;;;3.13;;
56201;SDS011;42117;50.360;3.508;2023-05-24T10:16:05;8.82;;;2.65;;
56201;SDS011;42117;50.360;3.508;2023-05-24T10:18:32;11.55;;;3.00;;
56201;SDS011;42117;50.360;3.508;2023-05-24T10:20:58;6.53;;;2.60;;
56201;SDS011;42117;50.360;3.508;2023-05-24T10:23:28;5.47;;;2.90;;
56201;SDS011;42117;50.360;3.508;2023-05-24T10:26:04;5.57;;;2.80;;
56201;SDS011;42117;50.360;3.508;2023-05-24T10:28:32;8.90;;;2.60;;
56201;SDS011;42117;50.360;3.508;2023-05-24T10:31:00;5.45;;;2.28;;
56201;SDS011;42117;50.360;3.508;2023-05-24T10:33:28;7.53;;;3.00;;
56201;SDS011;42117;50.360;3.508;2023-05-24T10:35:54;7.32;;;2.55;;
56201;SDS011;42117;50.360;3.508;2023-05-24T10:38:21;10.25;;;2.83;;
56201;SDS011;42117;50.360;3.508;2023-05-24T10:40:48;5.82;;;2.58;;
56201;SDS011;42117;50.360;3.508;2023-05-24T10:43:15;6.57;;;2.50;;
56201;SDS011;42117;50.360;3.508;2023-05-24T10:45:42;8.63;;;2.80;;
56201;SDS011;42117;50.360;3.508;2023-05-24T10:50:39;8.23;;;2.63;;
56201;SDS011;42117;50.360;3.508;2023-05-24T10:55:57;7.43;;;2.95;;
56201;SDS011;42117;50.360;3.508;2023-05-24T11:00:59;6.07;;;2.53;;
56201;SDS011;42117;50.360;3.508;2023-05-24T11:03:31;6.18;;;2.13;;
56201;SDS011;42117;50.360;3.508;2023-05-24T11:05:57;2.97;;;2.33;;
56201;SDS011;42117;50.360;3.508;2023-05-24T11:08:31;5.40;;;2.58;;
56201;SDS011;42117;50.360;3.508;2023-05-24T11:11:10;7.80;;;2.22;;
56201;SDS011;42117;50.360;3.508;2023-05-24T11:13:37;3.53;;;2.20;;
56201;SDS011;42117;50.360;3.508;2023-05-24T11:16:03;7.63;;;2.30;;
56201;SDS011;42117;50.360;3.508;2023-05-24T11:18:30;9.65;;;3.03;;
56201;SDS011;42117;50.360;3.508;2023-05-24T11:20:58;4.85;;;2.00;;
56201;SDS011;42117;50.360;3.508;2023-05-24T11:23:25;7.22;;;2.35;;
56201;SDS011;42117;50.360;3.508;2023-05-24T11:25:51;3.33;;;2.00;;
56201;SDS011;42117;50.360;3.508;2023-05-24T11:28:17;5.22;;;2.00;;
56201;SDS011;42117;50.360;3.508;2023-05-24T11:30:46;4.28;;;2.20;;
56201;SDS011;42117;50.360;3.508;2023-05-24T11:33:13;4.70;;;2.30;;
56201;SDS011;42117;50.360;3.508;2023-05-24T11:35:39;6.00;;;2.40;;
56201;SDS011;42117;50.360;3.508;2023-05-24T11:38:09;6.13;;;2.35;;
56201;SDS011;42117;50.360;3.508;2023-05-24T11:40:37;3.80;;;2.17;;
56201;SDS011;42117;50.360;3.508;2023-05-24T11:43:08;5.32;;;2.47;;
56201;SDS011;42117;50.360;3.508;2023-05-24T11:45:34;3.13;;;2.08;;
56201;SDS011;42117;50.360;3.508;2023-05-24T11:48:04;3.90;;;2.00;;
56201;SDS011;42117;50.360;3.508;2023-05-24T11:50:31;3.05;;;2.00;;
56201;SDS011;42117;50.360;3.508;2023-05-24T11:53:03;4.45;;;2.30;;
56201;SDS011;42117;50.360;3.508;2023-05-24T11:55:29;2.83;;;2.00;;
56201;SDS011;42117;50.360;3.508;2023-05-24T11:57:57;2.92;;;2.00;;
56201;SDS011;42117;50.360;3.508;2023-05-24T12:00:26;3.58;;;2.20;;
56201;SDS011;42117;50.360;3.508;2023-05-24T12:02:56;4.35;;;2.22;;
56201;SDS011;42117;50.360;3.508;2023-05-24T12:05:25;6.88;;;2.55;;
56201;SDS011;42117;50.360;3.508;2023-05-24T12:08:02;7.00;;;2.47;;
56201;SDS011;42117;50.360;3.508;2023-05-24T12:10:30;4.38;;;2.25;;
56201;SDS011;42117;50.360;3.508;2023-05-24T12:13:01;5.45;;;2.53;;
56201;SDS011;42117;50.360;3.508;2023-05-24T12:15:27;6.30;;;2.30;;
56201;SDS011;42117;50.360;3.508;2023-05-24T12:17:53;2.95;;;2.00;;
56201;SDS011;42117;50.360;3.508;2023-05-24T12:20:19;5.97;;;2.42;;
56201;SDS011;42117;50.360;3.508;2023-05-24T12:22:52;4.67;;;2.03;;
56201;SDS011;42117;50.360;3.508;2023-05-24T12:25:19;7.90;;;2.67;;
56201;SDS011;42117;50.360;3.508;2023-05-24T12:27:52;5.30;;;2.50;;
56201;SDS011;42117;50.360;3.508;2023-05-24T12:30:22;4.03;;;2.15;;
56201;SDS011;42117;50.360;3.508;2023-05-24T12:32:49;8.23;;;2.95;;
56201;SDS011;42117;50.360;3.508;2023-05-24T12:35:18;6.45;;;2.90;;
56201;SDS011;42117;50.360;3.508;2023-05-24T12:37:45;3.90;;;2.70;;
56201;SDS011;42117;50.360;3.508;2023-05-24T12:40:18;4.20;;;2.35;;
56201;SDS011;42117;50.360;3.508;2023-05-24T12:42:45;7.57;;;3.15;;
56201;SDS011;42117;50.360;3.508;2023-05-24T12:45:14;5.50;;;2.70;;
56201;SDS011;42117;50.360;3.508;2023-05-24T12:47:42;9.25;;;3.20;;
56201;SDS011;42117;50.360;3.508;2023-05-24T12:50:08;8.63;;;3.30;;
56201;SDS011;42117;50.360;3.508;2023-05-24T12:52:34;8.30;;;2.92;;
56201;SDS011;42117;50.360;3.508;2023-05-24T12:55:00;5.85;;;2.60;;
56201;SDS011;42117;50.360;3.508;2023-05-24T12:57:26;9.32;;;3.25;;
56201;SDS011;42117;50.360;3.508;2023-05-24T12:59:52;8.95;;;2.90;;
56201;SDS011;42117;50.360;3.508;2023-05-24T13:02:18;8.57;;;3.05;;
56201;SDS011;42117;50.360;3.508;2023-05-24T13:04:44;6.40;;;3.17;;
56201;SDS011;42117;50.360;3.508;2023-05-24T13:07:10;8.85;;;3.58;;
56201;SDS011;42117;50.360;3.508;2023-05-24T13:09:36;10.40;;;3.45;;
56201;SDS011;42117;50.360;3.508;2023-05-24T13:12:02;9.15;;;3.50;;
56201;SDS011;42117;50.360;3.508;2023-05-24T13:14:29;9.65;;;2.97;;
56201;SDS011;42117;50.360;3.508;2023-05-24T13:16:55;9.30;;;3.05;;
56201;SDS011;42117;50.360;3.508;2023-05-24T13:19:21;13.45;;;4.55;;
56201;SDS011;42117;50.360;3.508;2023-05-24T13:21:47;6.90;;;3.20;;
56201;SDS011;42117;50.360;3.508;2023-05-24T13:24:14;6.75;;;3.97;;
56201;SDS011;42117;50.360;3.508;2023-05-24T13:26:40;9.40;;;4.05;;
56201;SDS011;42117;50.360;3.508;2023-05-24T13:29:08;9.00;;;3.67;;
56201;SDS011;42117;50.360;3.508;2023-05-24T13:31:35;7.30;;;3.95;;
56201;SDS011;42117;50.360;3.508;2023-05-24T13:34:01;12.30;;;4.00;;
56201;SDS011;42117;50.360;3.508;2023-05-24T13:36:27;9.93;;;4.03;;
56201;SDS011;42117;50.360;3.508;2023-05-24T13:38:53;9.00;;;4.45;;
56201;SDS011;42117;50.360;3.508;2023-05-24T13:41:19;8.87;;;4.80;;
56201;SDS011;42117;50.360;3.508;2023-05-24T13:43:46;12.25;;;4.45;;
56201;SDS011;42117;50.360;3.508;2023-05-24T13:46:12;8.77;;;4.60;;
56201;SDS011;42117;50.360;3.508;2023-05-24T13:48:38;14.18;;;4.95;;
56201;SDS011;42117;50.360;3.508;2023-05-24T13:51:04;14.60;;;4.43;;
56201;SDS011;42117;50.360;3.508;2023-05-24T13:53:30;8.77;;;4.03;;
56201;SDS011;42117;50.360;3.508;2023-05-24T13:55:56;6.65;;;3.72;;
56201;SDS011;42117;50.360;3.508;2023-05-24T13:58:22;12.17;;;4.10;;
56201;SDS011;42117;50.360;3.508;2023-05-24T14:00:48;8.25;;;3.70;;
56201;SDS011;42117;50.360;3.508;2023-05-24T14:03:14;7.65;;;3.90;;
56201;SDS011;42117;50.360;3.508;2023-05-24T14:05:40;9.77;;;4.13;;
56201;SDS011;42117;50.360;3.508;2023-05-24T14:08:07;8.00;;;3.72;;
56201;SDS011;42117;50.360;3.508;2023-05-24T14:10:34;9.48;;;3.03;;
56201;SDS011;42117;50.360;3.508;2023-05-24T14:13:01;9.38;;;4.30;;
56201;SDS011;42117;50.360;3.508;2023-05-24T14:15:27;9.07;;;3.97;;
56201;SDS011;42117;50.360;3.508;2023-05-24T14:17:54;6.82;;;4.03;;
56201;SDS011;42117;50.360;3.508;2023-05-24T14:20:20;10.55;;;4.55;;
56201;SDS011;42117;50.360;3.508;2023-05-24T14:22:46;9.43;;;4.03;;
56201;SDS011;42117;50.360;3.508;2023-05-24T14:25:12;11.30;;;4.30;;
56201;SDS011;42117;50.360;3.508;2023-05-24T14:27:39;12.63;;;5.25;;
56201;SDS011;42117;50.360;3.508;2023-05-24T14:30:08;11.40;;;5.13;;
56201;SDS011;42117;50.360;3.508;2023-05-24T14:32:34;10.02;;;4.25;;
56201;SDS011;42117;50.360;3.508;2023-05-24T14:35:00;13.02;;;4.30;;
56201;SDS011;42117;50.360;3.508;2023-05-24T14:37:26;10.10;;;4.28;;
56201;SDS011;42117;50.360;3.508;2023-05-24T14:39:52;12.23;;;4.68;;
56201;SDS011;42117;50.360;3.508;2023-05-24T14:42:18;8.48;;;4.70;;
56201;SDS011;42117;50.360;3.508;2023-05-24T14:44:44;9.73;;;4.22;;
56201;SDS011;42117;50.360;3.508;2023-05-24T14:47:10;10.27;;;5.00;;
56201;SDS011;42117;50.360;3.508;2023-05-24T14:49:36;7.95;;;4.68;;
56201;SDS011;42117;50.360;3.508;2023-05-24T14:52:02;11.25;;;5.43;;
56201;SDS011;42117;50.360;3.508;2023-05-24T14:54:28;11.25;;;4.82;;
56201;SDS011;42117;50.360;3.508;2023-05-24T14:56:54;12.10;;;5.50;;
56201;SDS011;42117;50.360;3.508;2023-05-24T14:59:20;9.43;;;4.85;;
56201;SDS011;42117;50.360;3.508;2023-05-24T15:01:46;12.60;;;5.27;;
56201;SDS011;42117;50.360;3.508;2023-05-24T15:04:12;13.32;;;5.05;;
56201;SDS011;42117;50.360;3.508;2023-05-24T15:06:38;14.40;;;4.90;;
56201;SDS011;42117;50.360;3.508;2023-05-24T15:09:05;9.23;;;4.30;;